Metar z połowy godziny Komunikat METAR ze strony awiacja.imgw.pl Metar G30 EPWA METAR EPWA 180830Z 27003KT 220V320 5000 BR NSC M03/M04 Q1029 NOSIG=